Brangus — WDB4516 — position and weather

sailwx.info

Track history (hours):
 
Tides and Currents Weather Stations Pressure Air Temp Water Temp Dewpoint Dewpoint Depression Visibility Wind Speed Wind Dir Waves Ship Positions

Brangus

Owner: Great Lakes Dredge & Dock Company, Oak Brook, IL. More information available from US FCC via Universal Licensing System and Coast Guard Vessel Documentation Center.

Last reported at 2017-Apr-25 04:08 UTC. Time now 2017-Apr-27 18:55 UTC.
Position N 38°57' W 074°53'.

; draft 3 m.

MMSI: 366899270.

Date/timePositionNaut miles runAvg speedWind from/ knotsBaromVisibWave heightAir tempDewpointWater temp
2017-Apr-25 04:08N 38°57' W 074°53'0 0.0
2017-Apr-24 15:46N 38°57' W 074°53'0 0.7
2017-Apr-24 15:25N 38°57' W 074°53'1 3.2
2017-Apr-24 15:00N 38°57' W 074°55'3 5.4
2017-Apr-24 14:28N 38°58' W 074°58'6 6.6
2017-Apr-24 13:30N 39°02' W 075°05'3 6.5
2017-Apr-24 13:00N 39°04' W 075°08'3 5.9
2017-Apr-24 12:28N 39°06' W 075°11'2 5.0
2017-Apr-24 12:00N 39°08' W 075°13'2 4.7
2017-Apr-24 11:30N 39°10' W 075°15'2 4.5
2017-Apr-24 11:00N 39°11' W 075°17'2 4.7
2017-Apr-24 10:30N 39°13' W 075°18'3 5.6
2017-Apr-24 10:01N 39°16' W 075°20'3 5.6
2017-Apr-24 09:30N 39°18' W 075°23'3 6.5
2017-Apr-24 09:01N 39°20' W 075°25'4 7.1
2017-Apr-24 08:31N 39°23' W 075°28'4 8.2
2017-Apr-24 08:01N 39°26' W 075°32'4 7.9
2017-Apr-24 07:31N 39°30' W 075°34'4 7.8
2017-Apr-24 07:01N 39°34' W 075°33'3 5.3
2017-Apr-24 06:31N 39°33' W 075°37'3 5.1
2017-Apr-24 06:01N 39°33' W 075°40'2 4.8
2017-Apr-24 05:30N 39°33' W 075°43'2 4.6
2017-Apr-24 05:01N 39°32' W 075°46'2 4.4
2017-Apr-24 04:31N 39°32' W 075°49'2 3.9
2017-Apr-24 04:01N 39°32' W 075°51'2 4.2
2017-Apr-24 03:31N 39°31' W 075°53'2 4.3
2017-Apr-24 03:00N 39°30' W 075°56'2 4.8
2017-Apr-24 02:30N 39°28' W 075°58'3 5.1
2017-Apr-24 01:52N 39°26' W 076°01'2 4.5
2017-Apr-24 01:19N 39°24' W 076°03'2 5.5
2017-Apr-24 01:00N 39°23' W 076°05'150 4.1
2017-Apr-22 12:00N 36°54' W 076°20'4 7.7
2017-Apr-22 11:31N 36°51' W 076°17'1 0.1
2017-Apr-21 18:44N 36°50' W 076°16'0 0.7
2017-Apr-21 18:30N 36°50' W 076°16'0 0.0
2017-Apr-21 18:01N 36°50' W 076°16'0 0.2
2017-Apr-21 17:25N 36°50' W 076°16'0 0.0
2017-Apr-21 16:51N 36°50' W 076°16'0 0.1
2017-Apr-21 16:22N 36°50' W 076°16'0 0.1
2017-Apr-21 15:47N 36°50' W 076°16'0 0.0
2017-Apr-21 15:31N 36°50' W 076°16'0 0.2
2017-Apr-21 15:00N 36°50' W 076°16'0 0.1
2017-Apr-21 14:28N 36°50' W 076°16'5 1.9
2017-Apr-21 11:50N 36°54' W 076°20'3 8.0
2017-Apr-21 11:30N 36°52' W 076°19'3 0.3
2017-Apr-21 00:55N 36°50' W 076°16'2 4.6
2017-Apr-21 00:30N 36°51' W 076°18'4 0.3
2017-Apr-20 10:55N 36°54' W 076°20'3 8.0
2017-Apr-20 10:30N 36°51' W 076°18'4 0.2
2017-Apr-19 14:50N 36°55' W 076°21'0 0.0
2017-Apr-19 14:16N 36°55' W 076°21'2 0.7
2017-Apr-19 10:50N 36°53' W 076°20'3 8.2
2017-Apr-19 10:30N 36°51' W 076°18'2 0.1
2017-Apr-18 18:49N 36°50' W 076°16'2 5.6
2017-Apr-18 18:30N 36°51' W 076°18'3 0.3
2017-Apr-18 10:51N 36°53' W 076°20'3 7.8
2017-Apr-18 10:30N 36°51' W 076°18'2 0.1
2017-Apr-17 22:47N 36°50' W 076°16'5 0.4
2017-Apr-17 10:59N 36°54' W 076°20'4 7.9
2017-Apr-17 10:30N 36°51' W 076°18'2 3.4
2017-Apr-17 09:58N 36°50' W 076°16'0 0.0
2017-Apr-16 19:09N 36°50' W 076°16'1 6.9
2017-Apr-16 19:00N 36°51' W 076°17'5 0.2
2017-Apr-15 12:16N 36°55' W 076°21'2 6.0
2017-Apr-15 12:00N 36°53' W 076°20'3 6.5
2017-Apr-15 11:30N 36°51' W 076°18'  
Track history (hours):
 
Tides and Currents Weather Stations Pressure Air Temp Water Temp Dewpoint Dewpoint Depression Visibility Wind Speed Wind Dir Waves Ship Positions

Brangus

Owner: Great Lakes Dredge & Dock Company, Oak Brook, IL. More information available from US FCC via Universal Licensing System and Coast Guard Vessel Documentation Center.

Last reported at 2017-Apr-25 04:08 UTC. Time now 2017-Apr-27 18:55 UTC.
Position N 38°57' W 074°53'.

; draft 3 m.

MMSI: 366899270.

Date/timePositionNaut miles runAvg speedWind from/ knotsBaromVisibWave heightAir tempDewpointWater temp
2017-Apr-25 04:08N 38°57' W 074°53'0 0.0
2017-Apr-24 15:46N 38°57' W 074°53'0 0.7
2017-Apr-24 15:25N 38°57' W 074°53'1 3.2
2017-Apr-24 15:00N 38°57' W 074°55'3 5.4
2017-Apr-24 14:28N 38°58' W 074°58'6 6.6
2017-Apr-24 13:30N 39°02' W 075°05'3 6.5
2017-Apr-24 13:00N 39°04' W 075°08'3 5.9
2017-Apr-24 12:28N 39°06' W 075°11'2 5.0
2017-Apr-24 12:00N 39°08' W 075°13'2 4.7
2017-Apr-24 11:30N 39°10' W 075°15'2 4.5
2017-Apr-24 11:00N 39°11' W 075°17'2 4.7
2017-Apr-24 10:30N 39°13' W 075°18'3 5.6
2017-Apr-24 10:01N 39°16' W 075°20'3 5.6
2017-Apr-24 09:30N 39°18' W 075°23'3 6.5
2017-Apr-24 09:01N 39°20' W 075°25'4 7.1
2017-Apr-24 08:31N 39°23' W 075°28'4 8.2
2017-Apr-24 08:01N 39°26' W 075°32'4 7.9
2017-Apr-24 07:31N 39°30' W 075°34'4 7.8
2017-Apr-24 07:01N 39°34' W 075°33'3 5.3
2017-Apr-24 06:31N 39°33' W 075°37'3 5.1
2017-Apr-24 06:01N 39°33' W 075°40'2 4.8
2017-Apr-24 05:30N 39°33' W 075°43'2 4.6
2017-Apr-24 05:01N 39°32' W 075°46'2 4.4
2017-Apr-24 04:31N 39°32' W 075°49'2 3.9
2017-Apr-24 04:01N 39°32' W 075°51'2 4.2
2017-Apr-24 03:31N 39°31' W 075°53'2 4.3
2017-Apr-24 03:00N 39°30' W 075°56'2 4.8
2017-Apr-24 02:30N 39°28' W 075°58'3 5.1
2017-Apr-24 01:52N 39°26' W 076°01'2 4.5
2017-Apr-24 01:19N 39°24' W 076°03'2 5.5
2017-Apr-24 01:00N 39°23' W 076°05'150 4.1
2017-Apr-22 12:00N 36°54' W 076°20'4 7.7
2017-Apr-22 11:31N 36°51' W 076°17'1 0.1
2017-Apr-21 18:44N 36°50' W 076°16'0 0.7
2017-Apr-21 18:30N 36°50' W 076°16'0 0.0
2017-Apr-21 18:01N 36°50' W 076°16'0 0.2
2017-Apr-21 17:25N 36°50' W 076°16'0 0.0
2017-Apr-21 16:51N 36°50' W 076°16'0 0.1
2017-Apr-21 16:22N 36°50' W 076°16'0 0.1
2017-Apr-21 15:47N 36°50' W 076°16'0 0.0
2017-Apr-21 15:31N 36°50' W 076°16'0 0.2
2017-Apr-21 15:00N 36°50' W 076°16'0 0.1
2017-Apr-21 14:28N 36°50' W 076°16'5 1.9
2017-Apr-21 11:50N 36°54' W 076°20'3 8.0
2017-Apr-21 11:30N 36°52' W 076°19'3 0.3
2017-Apr-21 00:55N 36°50' W 076°16'2 4.6
2017-Apr-21 00:30N 36°51' W 076°18'4 0.3
2017-Apr-20 10:55N 36°54' W 076°20'3 8.0
2017-Apr-20 10:30N 36°51' W 076°18'4 0.2
2017-Apr-19 14:50N 36°55' W 076°21'0 0.0
2017-Apr-19 14:16N 36°55' W 076°21'2 0.7
2017-Apr-19 10:50N 36°53' W 076°20'3 8.2
2017-Apr-19 10:30N 36°51' W 076°18'2 0.1
2017-Apr-18 18:49N 36°50' W 076°16'2 5.6
2017-Apr-18 18:30N 36°51' W 076°18'3 0.3
2017-Apr-18 10:51N 36°53' W 076°20'3 7.8
2017-Apr-18 10:30N 36°51' W 076°18'2 0.1
2017-Apr-17 22:47N 36°50' W 076°16'5 0.4
2017-Apr-17 10:59N 36°54' W 076°20'4 7.9
2017-Apr-17 10:30N 36°51' W 076°18'2 3.4
2017-Apr-17 09:58N 36°50' W 076°16'0 0.0
2017-Apr-16 19:09N 36°50' W 076°16'1 6.9
2017-Apr-16 19:00N 36°51' W 076°17'5 0.2
2017-Apr-15 12:16N 36°55' W 076°21'2 6.0
2017-Apr-15 12:00N 36°53' W 076°20'3 6.5
2017-Apr-15 11:30N 36°51' W 076°18'  

Dump ship's entire track history